Terminal Aerodrome Forecast
Issued by NWS Grand Forks, ND

Home | Current Version | Previous Version | Text Only | Print | Product List | Glossary Off
Versions: 1 2 3 4 5 6 7 8 9 10 11 12 13 14 15 16

000
FTUS43 KFGF 192331
TAFFAR
TAF
KFAR 192331Z 2000/2024 08006KT P6SM BKN200
     FM201700 06008KT P6SM VCSH OVC040
     FM202300 04010KT P6SM VCSH OVC030=

USA.gov is the U.S. government's official web portal to all federal, state and local government web resources and services.